Time;durP1;ratioP1;P1;durP2;ratioP2;P2;SDS_P1;SDS_P2;PMS_P1;PMS_P2;Temp;Humidity;BMP_temperature;BMP_pressure;BME280_temperature;BME280_humidity;BME280_pressure;Samples;Min_cycle;Max_cycle;Signal;HPM_P1;HPM_P2
2021/12/21 00:01:24;;;;;;;25.75;12.55;;;-2.50;99.90;;;;;;4992852;28;20053;-81
2021/12/21 00:03:50;;;;;;;25.65;12.88;;;-2.50;99.90;;;;;;4997640;28;20045;-83
2021/12/21 00:06:17;;;;;;;24.77;11.75;;;-2.50;99.90;;;;;;4988150;28;176791;-83
2021/12/21 00:08:43;;;;;;;23.45;12.52;;;-2.50;99.90;;;;;;4998393;28;20068;-83
2021/12/21 00:11:09;;;;;;;28.23;13.68;;;-2.60;99.90;;;;;;4964963;28;49039;-82
2021/12/21 00:13:46;;;;;;;23.42;12.77;;;-2.60;99.90;;;;;;4976050;28;20134;-82
2021/12/21 00:16:48;;;;;;;22.02;11.77;;;-2.70;99.90;;;;;;4973252;28;261318;-82
2021/12/21 00:21:53;;;;;;;26.90;13.32;;;-2.70;99.90;;;;;;4979552;28;20435;-82
2021/12/21 00:24:19;;;;;;;25.73;12.93;;;-2.70;99.90;;;;;;4989885;28;269326;-82
2021/12/21 00:26:46;;;;;;;25.30;12.95;;;-2.70;99.90;;;;;;4973253;28;20089;-81
2021/12/21 00:29:12;;;;;;;28.45;13.32;;;-2.70;99.90;;;;;;4965617;28;254006;-82
2021/12/21 00:31:38;;;;;;;23.50;11.68;;;-2.70;99.90;;;;;;4996343;28;20068;-82
2021/12/21 00:34:09;;;;;;;22.27;11.93;;;-2.70;99.90;;;;;;4987976;28;254882;-82
2021/12/21 00:36:38;;;;;;;23.42;12.02;;;-2.70;99.90;;;;;;5005662;28;20054;-82
2021/12/21 00:39:07;;;;;;;22.88;11.75;;;-2.70;99.90;;;;;;4992340;28;256821;-81
2021/12/21 00:41:34;;;;;;;21.85;11.07;;;-2.70;99.90;;;;;;5008205;28;20638;-82
2021/12/21 00:44:00;;;;;;;24.27;11.90;;;-2.80;99.90;;;;;;4954090;28;253528;-83
2021/12/21 00:46:27;;;;;;;21.50;11.90;;;-2.80;99.90;;;;;;4990351;28;20488;-82
2021/12/21 00:48:56;;;;;;;21.55;11.98;;;-2.70;99.90;;;;;;4997161;28;256822;-81
2021/12/21 00:51:26;;;;;;;20.52;11.55;;;-2.70;99.90;;;;;;4991144;28;20795;-81
2021/12/21 00:53:52;;;;;;;25.35;11.82;;;-2.80;99.90;;;;;;4991635;28;20053;-84
2021/12/21 00:56:19;;;;;;;24.00;12.27;;;-2.80;99.90;;;;;;4992053;28;20057;-80
2021/12/21 00:58:45;;;;;;;22.08;11.85;;;-2.80;99.90;;;;;;4993663;28;20816;-80
2021/12/21 01:01:14;;;;;;;23.35;11.88;;;-2.80;99.90;;;;;;4864951;28;3004970;-81
2021/12/21 01:03:49;;;;;;;28.70;12.02;;;-2.80;99.90;;;;;;4992903;28;20068;-82
2021/12/21 01:11:49;;;;;;;23.83;12.43;;;-2.90;99.90;;;;;;4930688;29;20066;-83
2021/12/21 01:20:03;;;;;;;23.45;11.23;;;-2.90;99.90;;;;;;4932148;28;117787;-82
2021/12/21 01:28:10;;;;;;;23.35;11.38;;;-3.00;99.90;;;;;;4921741;29;20053;-82
2021/12/21 01:33:25;;;;;;;22.02;10.75;;;-3.00;99.90;;;;;;4935537;28;20052;-83
2021/12/21 01:35:57;;;;;;;21.60;11.32;;;-3.00;99.90;;;;;;4904557;29;146512;-83
2021/12/21 01:43:24;;;;;;;19.83;11.33;;;-3.00;99.90;;;;;;4912503;29;20051;-82
2021/12/21 01:51:24;;;;;;;23.93;11.60;;;-3.00;99.90;;;;;;4947586;28;20120;-82
2021/12/21 01:53:51;;;;;;;23.30;11.53;;;-3.00;99.90;;;;;;4956972;28;20516;-81
2021/12/21 01:56:19;;;;;;;24.35;12.07;;;-3.00;99.90;;;;;;4891420;29;180063;-82
2021/12/21 01:58:45;;;;;;;24.63;12.30;;;-3.00;99.90;;;;;;4919731;29;20165;-81
2021/12/21 02:01:15;;;;;;;23.00;11.50;;;-3.00;99.90;;;;;;4941494;28;27300;-81
2021/12/21 02:03:47;;;;;;;21.58;11.77;;;-3.00;99.90;;;;;;4939982;29;20047;-82
2021/12/21 02:06:25;;;;;;;26.73;12.25;;;-3.10;99.90;;;;;;4955839;28;161177;-83
2021/12/21 02:08:52;;;;;;;26.48;12.15;;;-3.10;99.90;;;;;;4974910;28;20050;-82
2021/12/21 02:11:20;;;;;;;21.13;10.82;;;-3.10;99.90;;;;;;4976343;28;238081;-81
2021/12/21 02:13:49;;;;;;;24.10;11.17;;;-3.10;99.90;;;;;;5013225;28;20054;-83
2021/12/21 02:16:32;;;;;;;22.95;11.25;;;-3.10;99.90;;;;;;4971309;28;93539;-81
2021/12/21 02:19:07;;;;;;;23.55;11.52;;;-3.10;99.90;;;;;;4943756;28;255690;-82
2021/12/21 02:21:43;;;;;;;20.97;11.73;;;-3.20;99.90;;;;;;5019859;28;20811;-81
2021/12/21 02:24:15;;;;;;;22.75;11.18;;;-3.20;99.90;;;;;;4974165;28;258987;-82
2021/12/21 02:29:32;;;;;;;22.90;11.27;;;-3.20;99.90;;;;;;4980482;28;82204;-83
2021/12/21 02:31:59;;;;;;;22.43;12.00;;;-3.20;99.90;;;;;;4998829;28;20042;-83
2021/12/21 02:34:25;;;;;;;26.10;11.37;;;-3.20;99.90;;;;;;4962648;28;173002;-81
2021/12/21 02:36:54;;;;;;;24.50;12.30;;;-3.20;99.90;;;;;;5003655;28;20486;-81
2021/12/21 02:39:21;;;;;;;24.73;12.60;;;-3.20;99.90;;;;;;4976145;28;121511;-82
2021/12/21 02:41:47;;;;;;;25.03;12.17;;;-3.20;99.90;;;;;;4980008;28;20690;-82
2021/12/21 02:44:14;;;;;;;22.70;11.43;;;-3.30;99.90;;;;;;4967173;28;262001;-82
2021/12/21 02:46:42;;;;;;;25.65;12.13;;;-3.30;99.90;;;;;;5000475;28;20423;-82
2021/12/21 02:49:10;;;;;;;24.07;11.37;;;-3.30;99.90;;;;;;4993082;28;257498;-83
2021/12/21 02:51:44;;;;;;;18.98;10.75;;;-3.30;99.90;;;;;;4985230;28;20261;-82
2021/12/21 02:54:12;;;;;;;22.77;10.68;;;-3.30;99.90;;;;;;4973623;28;260823;-81
2021/12/21 02:56:39;;;;;;;22.57;10.50;;;-3.40;99.90;;;;;;4993274;28;20053;-82
2021/12/21 02:59:05;;;;;;;21.20;10.60;;;-3.40;99.90;;;;;;4992373;28;265659;-82
2021/12/21 03:01:33;;;;;;;24.57;11.50;;;-3.40;99.90;;;;;;4991501;28;20073;-81
2021/12/21 03:04:02;;;;;;;19.20;9.90;;;-3.40;99.90;;;;;;5010651;28;20049;-82
2021/12/21 03:09:40;;;;;;;20.53;10.30;;;-3.40;99.90;;;;;;4933946;28;220634;-82
2021/12/21 03:14:51;;;;;;;20.57;10.60;;;-3.50;99.90;;;;;;4974683;28;158531;-81
2021/12/21 03:17:17;;;;;;;21.23;10.10;;;-3.50;99.90;;;;;;4994787;28;20054;-81
2021/12/21 03:19:46;;;;;;;22.77;10.53;;;-3.50;99.90;;;;;;4997537;28;71782;-82
2021/12/21 03:22:14;;;;;;;24.13;10.47;;;-3.50;99.90;;;;;;5002328;28;20064;-82
2021/12/21 03:24:43;;;;;;;23.20;10.93;;;-3.50;99.90;;;;;;4998327;28;240902;-81
2021/12/21 03:27:10;;;;;;;21.40;11.03;;;-3.40;99.90;;;;;;4986166;28;20487;-81
2021/12/21 03:29:36;;;;;;;21.57;11.00;;;-3.50;99.90;;;;;;4982360;28;209225;-81
2021/12/21 03:32:03;;;;;;;21.70;9.43;;;-3.50;99.90;;;;;;5010605;28;20050;-81
2021/12/21 03:34:29;;;;;;;21.47;10.33;;;-3.40;99.90;;;;;;4958159;28;213376;-80
2021/12/21 03:36:56;;;;;;;19.53;10.10;;;-3.50;99.90;;;;;;4982339;28;20042;-81
2021/12/21 03:39:23;;;;;;;20.90;9.73;;;-3.50;99.90;;;;;;4964479;28;51648;-81
2021/12/21 03:41:56;;;;;;;22.83;10.57;;;-3.50;99.90;;;;;;4982913;28;20046;-81
2021/12/21 03:44:24;;;;;;;20.98;10.02;;;-3.50;99.90;;;;;;4971074;28;270742;-81
2021/12/21 03:46:53;;;;;;;20.47;9.13;;;-3.60;99.90;;;;;;4991884;28;20558;-82
2021/12/21 03:52:05;;;;;;;;;;;-3.60;99.90;;;;;;4988845;28;20065;-82
2021/12/21 03:54:34;;;;;;;19.00;10.03;;;-3.60;99.90;;;;;;4975210;28;25238;-82
2021/12/21 03:57:01;;;;;;;20.33;9.80;;;-3.60;99.90;;;;;;4993146;28;20045;-81
2021/12/21 03:59:30;;;;;;;20.00;10.40;;;-3.60;99.90;;;;;;4984083;28;228647;-81
2021/12/21 04:01:57;;;;;;;19.77;9.70;;;-3.50;99.90;;;;;;4976171;28;20058;-82
2021/12/21 04:04:24;;;;;;;18.90;9.17;;;-3.60;99.90;;;;;;4966803;28;168780;-82
2021/12/21 04:06:54;;;;;;;22.97;9.97;;;-3.60;99.90;;;;;;5004502;28;20049;-81
2021/12/21 04:09:20;;;;;;;19.73;9.00;;;-3.60;99.90;;;;;;4965788;28;89695;-83
2021/12/21 04:11:47;;;;;;;22.53;9.87;;;-3.60;99.90;;;;;;4964930;28;20058;-81
2021/12/21 04:14:15;;;;;;;23.37;10.70;;;-3.50;99.90;;;;;;4955596;28;204987;-82
2021/12/21 04:16:44;;;;;;;22.30;10.03;;;-3.60;99.90;;;;;;5014006;28;20048;-82
2021/12/21 04:19:12;;;;;;;22.13;10.17;;;-3.50;99.90;;;;;;4899993;28;3001762;-81
2021/12/21 04:21:39;;;;;;;17.13;9.13;;;-3.60;99.90;;;;;;4994564;28;20066;-82
2021/12/21 04:24:05;;;;;;;20.90;9.57;;;-3.60;99.90;;;;;;4994515;28;250882;-81
2021/12/21 04:26:32;;;;;;;21.03;10.40;;;-3.60;99.90;;;;;;5005948;28;20046;-82
2021/12/21 04:29:00;;;;;;;19.50;9.37;;;-3.60;99.90;;;;;;4961697;28;254863;-83
2021/12/21 04:31:26;;;;;;;17.27;9.27;;;-3.60;99.90;;;;;;4978102;28;20053;-81
2021/12/21 04:33:53;;;;;;;19.87;9.40;;;-3.60;99.90;;;;;;4995135;28;20057;-82
2021/12/21 04:36:19;;;;;;;18.63;9.03;;;-3.60;99.90;;;;;;4976412;28;196774;-81
2021/12/21 04:38:49;;;;;;;17.73;8.23;;;-3.60;99.90;;;;;;4981484;28;20053;-80
2021/12/21 04:41:22;;;;;;;20.03;9.57;;;-3.70;99.90;;;;;;4958727;28;246823;-81
2021/12/21 04:43:55;;;;;;;19.90;9.60;;;-3.70;99.90;;;;;;4991466;28;20062;-81
2021/12/21 04:46:23;;;;;;;20.57;9.07;;;-3.70;99.90;;;;;;4963417;28;20407;-80
2021/12/21 04:48:51;;;;;;;19.67;8.50;;;-3.70;99.90;;;;;;5004075;28;20060;-81
2021/12/21 04:51:21;;;;;;;18.37;8.10;;;-3.70;99.90;;;;;;4981072;28;20055;-81
2021/12/21 04:53:47;;;;;;;18.03;8.90;;;-3.70;99.90;;;;;;4977733;28;20471;-82
2021/12/21 04:56:17;;;;;;;17.83;8.97;;;-3.70;99.90;;;;;;4949164;28;152366;-82
2021/12/21 04:58:49;;;;;;;18.47;8.13;;;-3.70;99.90;;;;;;4975395;28;20068;-81
2021/12/21 05:01:15;;;;;;;17.53;8.03;;;-3.70;99.90;;;;;;4957131;28;196550;-81
2021/12/21 05:03:41;;;;;;;17.30;8.17;;;-3.70;99.90;;;;;;4972184;28;20037;-81
2021/12/21 05:06:08;;;;;;;18.23;8.07;;;-3.80;99.90;;;;;;4954259;28;114325;-81
2021/12/21 05:08:41;;;;;;;16.30;8.10;;;-3.80;99.90;;;;;;4963552;28;20078;-82
2021/12/21 05:11:08;;;;;;;18.50;8.27;;;-3.80;99.90;;;;;;4960527;28;148471;-81
2021/12/21 05:13:39;;;;;;;20.10;8.87;;;-3.90;99.90;;;;;;4958358;28;20054;-82
2021/12/21 05:16:05;;;;;;;18.38;8.32;;;-3.90;99.90;;;;;;4956099;28;166270;-81
2021/12/21 05:18:34;;;;;;;18.80;7.93;;;-3.80;99.90;;;;;;4956185;28;20054;-82
2021/12/21 05:21:04;;;;;;;21.23;8.87;;;-3.80;99.90;;;;;;4986564;28;263440;-82
2021/12/21 05:23:31;;;;;;;17.47;7.77;;;-3.80;99.90;;;;;;4976642;28;20060;-81
2021/12/21 05:26:00;;;;;;;18.33;7.93;;;-3.80;99.90;;;;;;4960592;28;237138;-80
2021/12/21 05:28:26;;;;;;;23.60;8.57;;;-3.80;99.90;;;;;;4993279;28;20053;-80
2021/12/21 05:30:53;;;;;;;17.80;7.30;;;-3.90;99.90;;;;;;4961444;28;60728;-81
2021/12/21 05:33:19;;;;;;;19.87;8.60;;;-3.90;99.90;;;;;;4993304;28;20069;-81
2021/12/21 05:35:45;;;;;;;18.17;8.20;;;-3.90;99.90;;;;;;4991484;28;247732;-81
2021/12/21 05:38:16;;;;;;;18.87;8.00;;;-3.90;99.90;;;;;;4989813;28;20053;-81
2021/12/21 05:40:51;;;;;;;18.73;8.60;;;-3.90;99.90;;;;;;4965847;28;116394;-81
2021/12/21 05:43:21;;;;;;;16.80;8.20;;;-4.00;99.90;;;;;;4990752;28;20057;-82
2021/12/21 05:45:47;;;;;;;16.43;8.50;;;-4.00;99.90;;;;;;4975649;28;195333;-82
2021/12/21 05:48:13;;;;;;;16.70;7.97;;;-4.00;99.90;;;;;;5008205;28;20065;-82
2021/12/21 05:50:40;;;;;;;16.13;7.43;;;-4.00;99.90;;;;;;4990537;28;277556;-83
2021/12/21 05:53:07;;;;;;;16.73;8.70;;;-4.00;99.90;;;;;;4975521;28;20049;-81
2021/12/21 05:55:33;;;;;;;18.87;8.53;;;-4.00;99.90;;;;;;4981478;28;64832;-82
2021/12/21 05:58:00;;;;;;;17.07;8.30;;;-4.00;99.90;;;;;;4987293;28;20054;-81
2021/12/21 06:00:33;;;;;;;17.37;8.10;;;-4.00;99.90;;;;;;4988424;28;270076;-82
2021/12/21 06:03:02;;;;;;;14.70;7.13;;;-3.90;99.90;;;;;;5007678;28;20061;-80
2021/12/21 06:05:30;;;;;;;20.50;7.57;;;-4.00;99.90;;;;;;4974288;28;259014;-80
2021/12/21 06:07:58;;;;;;;18.27;7.83;;;-4.10;99.90;;;;;;4998347;28;20046;-81
2021/12/21 06:10:32;;;;;;;17.17;7.83;;;-4.10;99.90;;;;;;4984249;28;51910;-79
2021/12/21 06:26:17;;;;;;;18.70;8.07;;;-4.10;99.90;;;;;;4976291;28;242062;-80
2021/12/21 06:28:45;;;;;;;18.30;7.40;;;-4.10;99.90;;;;;;4994794;28;20392;-81
2021/12/21 06:31:20;;;;;;;20.77;7.07;;;-4.10;99.90;;;;;;4969998;28;22750;-81
2021/12/21 06:33:47;;;;;;;17.33;8.33;;;-4.10;99.90;;;;;;4989571;28;20042;-81
2021/12/21 06:36:13;;;;;;;18.33;8.47;;;-4.10;99.90;;;;;;4977650;28;172252;-80
2021/12/21 06:38:40;;;;;;;19.37;7.97;;;-4.10;99.90;;;;;;4990643;28;20057;-80
2021/12/21 06:41:09;;;;;;;18.23;8.03;;;-4.10;99.90;;;;;;4977714;28;277459;-81
2021/12/21 06:43:35;;;;;;;16.73;7.73;;;-4.10;99.90;;;;;;5009513;28;20153;-80
2021/12/21 06:46:11;;;;;;;18.23;7.40;;;-4.10;99.90;;;;;;4977924;28;152515;-81
2021/12/21 06:53:59;;;;;;;15.60;7.17;;;-4.10;99.90;;;;;;5009319;28;20048;-81
2021/12/21 06:56:27;;;;;;;15.90;7.93;;;-4.10;99.90;;;;;;4937454;28;20047;-80
2021/12/21 06:58:55;;;;;;;15.73;8.10;;;-4.20;99.90;;;;;;4940006;29;20067;-81
2021/12/21 07:01:26;;;;;;;15.70;7.97;;;-4.20;99.90;;;;;;4888828;29;20055;-81
2021/12/21 07:03:52;;;;;;;20.48;7.95;;;-4.20;99.90;;;;;;4898982;29;20048;-80
2021/12/21 07:06:19;;;;;;;20.07;7.90;;;-4.20;99.90;;;;;;4901088;29;222697;-80
2021/12/21 07:08:58;;;;;;;17.77;8.47;;;-4.20;99.90;;;;;;4916098;29;20071;-81
2021/12/21 07:11:38;;;;;;;17.73;8.17;;;-4.10;99.90;;;;;;4917133;29;20056;-81
2021/12/21 07:19:35;;;;;;;18.47;8.77;;;-4.20;99.90;;;;;;4920178;29;72343;-81
2021/12/21 07:22:02;;;;;;;17.50;8.37;;;-4.20;99.90;;;;;;4922074;29;20055;-81
2021/12/21 07:24:28;;;;;;;21.03;9.03;;;-4.20;99.90;;;;;;4920569;29;114775;-81
2021/12/21 07:26:54;;;;;;;20.83;9.07;;;-4.20;99.90;;;;;;4955947;28;20065;-81
2021/12/21 07:29:21;;;;;;;18.67;8.00;;;-4.20;99.90;;;;;;4974745;28;256135;-81
2021/12/21 07:31:47;;;;;;;19.10;8.63;;;-4.20;99.90;;;;;;4975971;28;20340;-81
2021/12/21 07:34:14;;;;;;;18.63;9.33;;;-4.30;99.90;;;;;;4987554;28;234948;-81
2021/12/21 07:36:43;;;;;;;20.90;8.50;;;-4.20;99.90;;;;;;4989583;28;20117;-82
2021/12/21 07:39:12;;;;;;;17.90;8.10;;;-4.30;99.90;;;;;;4972793;28;254414;-80
2021/12/21 07:41:40;;;;;;;18.47;8.53;;;-4.30;99.90;;;;;;4977965;28;20041;-81
2021/12/21 07:44:10;;;;;;;18.33;8.17;;;-4.30;99.90;;;;;;4963382;28;257974;-82
2021/12/21 07:46:40;;;;;;;20.03;9.67;;;-4.30;99.90;;;;;;4990499;28;20609;-81
2021/12/21 07:49:09;;;;;;;18.30;9.23;;;-4.30;99.90;;;;;;4991622;28;259442;-82
2021/12/21 07:51:38;;;;;;;23.37;10.40;;;-4.30;99.90;;;;;;4988942;28;20057;-82
2021/12/21 07:54:04;;;;;;;20.60;9.23;;;-4.30;99.90;;;;;;4959734;28;258918;-82
2021/12/21 07:56:30;;;;;;;20.33;9.23;;;-4.30;99.90;;;;;;4997023;28;20061;-81
2021/12/21 07:58:57;;;;;;;19.23;10.37;;;-4.30;99.90;;;;;;4965904;28;262799;-82
2021/12/21 08:01:29;;;;;;;21.07;9.80;;;-4.20;99.90;;;;;;4976737;28;20155;-82
2021/12/21 08:03:57;;;;;;;20.83;10.77;;;-4.20;99.90;;;;;;4988122;28;247772;-82
2021/12/21 08:06:25;;;;;;;21.03;10.33;;;-4.20;99.90;;;;;;4959165;28;190746;-81
2021/12/21 08:08:52;;;;;;;19.27;9.47;;;-4.10;99.90;;;;;;4999820;28;20073;-82
2021/12/21 08:14:08;;;;;;;20.27;9.23;;;-4.20;99.90;;;;;;4921407;29;54889;-81
2021/12/21 08:16:37;;;;;;;17.77;9.07;;;-4.20;99.90;;;;;;4922848;29;20051;-81
2021/12/21 08:19:04;;;;;;;19.47;9.37;;;-4.20;99.90;;;;;;4919745;29;116001;-80
2021/12/21 08:21:31;;;;;;;24.60;11.53;;;-4.20;99.90;;;;;;4918073;29;20063;-81
2021/12/21 08:23:58;;;;;;;20.60;10.53;;;-4.20;99.90;;;;;;4905267;29;124757;-81
2021/12/21 08:26:24;;;;;;;19.17;10.17;;;-4.20;99.90;;;;;;4902281;29;20052;-81
2021/12/21 08:28:51;;;;;;;25.23;10.97;;;-4.10;99.90;;;;;;4925173;29;20058;-81
2021/12/21 08:31:17;;;;;;;22.07;12.87;;;-4.20;99.90;;;;;;4926960;29;20052;-82
2021/12/21 08:33:43;;;;;;;29.47;14.47;;;-4.10;99.90;;;;;;4923150;29;20055;-82
2021/12/21 08:36:10;;;;;;;34.07;15.53;;;-4.10;99.90;;;;;;4923912;29;79697;-80
2021/12/21 08:38:39;;;;;;;30.90;15.30;;;-4.00;99.90;;;;;;4942016;29;20071;-81
2021/12/21 08:41:06;;;;;;;29.77;16.20;;;-4.00;99.90;;;;;;4917779;29;28065;-81
2021/12/21 08:43:35;;;;;;;39.60;20.93;;;-4.00;99.90;;;;;;4905570;29;20051;-81
2021/12/21 08:46:02;;;;;;;43.30;22.73;;;-3.90;99.90;;;;;;4905114;29;39626;-81
2021/12/21 08:48:31;;;;;;;43.43;22.97;;;-3.70;99.90;;;;;;4914277;29;20060;-81
2021/12/21 08:50:58;;;;;;;51.93;25.07;;;-3.60;99.90;;;;;;4893963;28;115506;-81
2021/12/21 08:53:25;;;;;;;55.77;25.80;;;-3.50;99.90;;;;;;4970987;28;20057;-82
2021/12/21 08:55:53;;;;;;;46.43;25.60;;;-3.30;99.90;;;;;;4989904;28;242771;-80
2021/12/21 08:58:22;;;;;;;48.93;25.53;;;-3.30;99.90;;;;;;4963359;28;20050;-82
2021/12/21 09:00:50;;;;;;;52.23;27.77;;;-3.20;99.90;;;;;;4970051;28;82570;-81
2021/12/21 09:03:39;;;;;;;52.60;28.83;;;-3.20;99.90;;;;;;4978749;28;20061;-82
2021/12/21 09:06:06;;;;;;;60.67;30.83;;;-3.20;99.90;;;;;;4937573;28;132380;-82
2021/12/21 09:08:32;;;;;;;59.73;30.43;;;-3.10;99.90;;;;;;4959570;28;20058;-82
2021/12/21 09:11:05;;;;;;;48.93;28.17;;;-2.90;99.90;;;;;;4988551;28;229419;-82
2021/12/21 09:13:32;;;;;;;61.40;32.03;;;-2.90;99.90;;;;;;4977293;28;20161;-81
2021/12/21 09:15:59;;;;;;;62.97;31.70;;;-2.90;99.90;;;;;;4964008;28;61079;-83
2021/12/21 09:18:33;;;;;;;57.73;31.23;;;-2.80;99.90;;;;;;4990915;28;20142;-82
2021/12/21 09:21:02;;;;;;;61.17;29.07;;;-2.60;99.90;;;;;;4963159;28;20402;-82
2021/12/21 09:23:29;;;;;;;56.90;28.93;;;-2.70;99.90;;;;;;4968920;28;20050;-81
2021/12/21 09:25:58;;;;;;;51.07;28.20;;;-2.60;99.90;;;;;;4944612;28;191054;-83
2021/12/21 09:28:24;;;;;;;47.23;27.50;;;-2.60;99.90;;;;;;4958660;28;20046;-82
2021/12/21 09:30:57;;;;;;;51.35;28.38;;;-2.60;99.90;;;;;;4964637;28;83731;-82
2021/12/21 09:33:28;;;;;;;53.23;29.43;;;-2.50;99.90;;;;;;4964979;28;20046;-81
2021/12/21 09:35:57;;;;;;;55.95;31.38;;;-2.40;99.90;;;;;;4960279;28;272951;-81
2021/12/21 09:38:32;;;;;;;58.60;30.13;;;-2.30;99.90;;;;;;4985512;28;20042;-82
2021/12/21 09:41:08;;;;;;;58.53;31.75;;;-2.30;99.90;;;;;;4967502;28;92878;-82
2021/12/21 09:43:51;;;;;;;59.50;33.33;;;-2.20;99.90;;;;;;4978673;28;20149;-83
2021/12/21 09:46:17;;;;;;;56.72;30.45;;;-2.20;99.90;;;;;;4942342;28;181530;-82
2021/12/21 09:48:44;;;;;;;55.80;30.50;;;-2.10;99.90;;;;;;4989496;28;20511;-82
2021/12/21 09:54:16;;;;;;;55.07;30.40;;;-1.90;99.90;;;;;;4918165;28;175098;-82
2021/12/21 09:56:45;;;;;;;56.90;29.55;;;-1.80;99.90;;;;;;4970036;28;20055;-81
2021/12/21 09:59:14;;;;;;;62.30;31.15;;;-1.70;99.90;;;;;;4956686;28;164347;-82
2021/12/21 10:01:48;;;;;;;53.00;29.35;;;-1.60;99.90;;;;;;4955801;28;20054;-82
2021/12/21 10:04:18;;;;;;;52.87;30.43;;;-1.50;99.90;;;;;;4922424;28;168388;-81
2021/12/21 10:10:19;;;;;;;45.40;28.20;;;-1.30;99.90;;;;;;4934950;28;20042;-82
2021/12/21 10:12:48;;;;;;;50.08;27.23;;;-1.20;99.90;;;;;;4960257;28;20571;-82
2021/12/21 10:15:20;;;;;;;50.05;27.10;;;-1.20;99.90;;;;;;4958983;28;245522;-82
2021/12/21 10:18:23;;;;;;;48.47;25.00;;;-1.10;99.90;;;;;;4980733;28;20062;-82
2021/12/21 10:20:55;;;;;;;44.92;24.13;;;-1.00;99.90;;;;;;4955781;28;225135;-83
2021/12/21 10:23:48;;;;;;;40.88;23.27;;;-0.90;99.90;;;;;;4946031;28;20059;-82
2021/12/21 10:26:34;;;;;;;41.25;21.88;;;-0.80;99.90;;;;;;4942626;28;21398;-83
2021/12/21 10:29:05;;;;;;;40.78;22.83;;;-0.80;99.90;;;;;;4956213;28;220839;-82
2021/12/21 10:31:40;;;;;;;34.38;20.60;;;-0.60;99.90;;;;;;4977162;28;20062;-82
2021/12/21 10:34:12;;;;;;;33.83;18.88;;;-0.50;99.90;;;;;;4938680;28;171212;-83
2021/12/21 10:37:02;;;;;;;;;;;;;;;;;;;;;
2021/12/21 10:39:36;;;;;;;34.97;18.83;;;-0.40;99.90;;;;;;4950146;28;269026;-83
2021/12/21 10:42:05;;;;;;;33.00;17.58;;;-0.30;99.90;;;;;;4960156;28;20061;-83
2021/12/21 10:44:34;;;;;;;31.08;16.83;;;-0.20;99.90;;;;;;4945622;28;221609;-83
2021/12/21 10:47:04;;;;;;;33.60;16.60;;;-0.10;99.90;;;;;;4999634;28;20079;-83
2021/12/21 10:49:31;;;;;;;33.95;17.70;;;-0.10;99.90;;;;;;4995919;28;264071;-83
2021/12/21 10:52:07;;;;;;;29.70;16.23;;;0.00;99.90;;;;;;4979299;28;20125;-83
2021/12/21 10:54:42;;;;;;;29.02;15.38;;;0.00;99.90;;;;;;4962476;28;138603;-82
2021/12/21 10:57:16;;;;;;;28.30;15.18;;;0.10;99.90;;;;;;4969442;28;20068;-83
2021/12/21 10:59:46;;;;;;;29.70;14.90;;;0.20;99.90;;;;;;4862704;28;3013922;-83
2021/12/21 11:02:24;;;;;;;28.95;15.48;;;0.20;99.90;;;;;;5003698;28;20501;-83
2021/12/21 11:05:04;;;;;;;30.00;15.52;;;0.40;99.90;;;;;;4964243;28;95805;-83
2021/12/21 11:07:45;;;;;;;28.23;15.30;;;0.40;99.90;;;;;;4989315;28;20057;-82
2021/12/21 11:10:28;;;;;;;26.77;14.38;;;0.40;99.90;;;;;;4876623;28;3007035;-82
2021/12/21 11:12:59;;;;;;;31.33;15.18;;;0.40;99.90;;;;;;4974799;28;20058;-82
2021/12/21 11:15:43;;;;;;;31.00;13.73;;;0.40;99.90;;;;;;4862700;28;3009840;-82
2021/12/21 11:18:12;;;;;;;28.17;13.95;;;0.50;99.90;;;;;;4967214;28;20054;-83
2021/12/21 11:20:53;;;;;;;22.95;11.70;;;0.50;99.90;;;;;;4957279;28;250681;-83
2021/12/21 11:23:33;;;;;;;22.83;11.63;;;0.50;99.90;;;;;;4973963;28;20533;-82
2021/12/21 11:26:03;;;;;;;21.60;10.93;;;0.60;99.90;;;;;;4615100;28;10003452;-81
2021/12/21 11:28:35;;;;;;;21.00;11.13;;;0.70;99.90;;;;;;4931316;29;20363;-81
2021/12/21 11:31:06;;;;;;;24.48;11.63;;;0.70;99.90;;;;;;4909679;29;61768;-81
2021/12/21 11:33:40;;;;;;;22.55;11.90;;;0.80;99.90;;;;;;4901118;29;20051;-81
2021/12/21 11:38:52;;;;;;;23.60;12.07;;;0.90;99.90;;;;;;4931236;29;20167;-82
2021/12/21 11:41:18;;;;;;;24.70;11.23;;;0.80;99.90;;;;;;4806183;29;3016912;-82
2021/12/21 11:44:07;;;;;;;24.45;11.38;;;0.90;99.90;;;;;;4918344;29;20051;-81
2021/12/21 11:47:16;;;;;;;;;;;;;;;;;;;;;
2021/12/21 11:49:55;;;;;;;20.48;11.30;;;1.00;99.90;;;;;;4820728;28;3041011;-83
2021/12/21 11:52:24;;;;;;;21.10;11.23;;;1.10;99.90;;;;;;4933197;29;20055;-81
2021/12/21 11:54:53;;;;;;;22.67;11.50;;;1.20;99.90;;;;;;4899637;29;20048;-82
2021/12/21 11:57:47;;;;;;;22.27;11.40;;;1.20;99.90;;;;;;4953723;28;20089;-82
2021/12/21 12:00:42;;;;;;;22.08;11.00;;;1.30;99.90;;;;;;4949074;28;169426;-82
2021/12/21 12:03:21;;;;;;;16.60;9.68;;;1.30;99.90;;;;;;4978927;28;20053;-82
2021/12/21 12:06:12;;;;;;;20.27;10.45;;;1.30;99.90;;;;;;4860801;28;3033794;-83
2021/12/21 12:09:04;;;;;;;22.35;10.95;;;1.40;99.90;;;;;;4986040;28;20757;-82
2021/12/21 12:11:36;;;;;;;19.25;9.57;;;1.30;99.90;;;;;;4967630;28;20057;-81
2021/12/21 12:14:15;;;;;;;20.23;10.60;;;1.40;99.90;;;;;;4943884;28;228023;-81
2021/12/21 12:16:56;;;;;;;21.17;11.68;;;2.00;99.90;;;;;;4955327;28;20369;-82
2021/12/21 12:19:37;;;;;;;20.05;10.23;;;4.30;99.90;;;;;;4949451;28;183032;-82
2021/12/21 12:22:11;;;;;;;20.27;9.63;;;6.00;99.90;;;;;;4982160;28;20073;-82
2021/12/21 12:25:01;;;;;;;21.15;9.68;;;7.40;99.90;;;;;;4685506;28;8992181;-82
2021/12/21 12:28:09;;;;;;;19.02;8.77;;;8.80;99.90;;;;;;4986597;28;20054;-82
2021/12/21 12:30:49;;;;;;;17.50;7.70;;;9.80;99.90;;;;;;4983812;28;243489;-82
2021/12/21 12:33:21;;;;;;;16.73;7.30;;;10.70;96.60;;;;;;4963203;28;20055;-83
2021/12/21 12:36:38;;;;;;;16.20;7.60;;;11.60;95.20;;;;;;4690218;28;8928850;-84
2021/12/21 12:39:54;;;;;;;14.57;7.03;;;12.20;95.20;;;;;;4936941;28;211003;-82
2021/12/21 12:43:30;;;;;;;16.83;5.97;;;13.30;89.10;;;;;;4954917;28;20253;-83
2021/12/21 12:47:00;;;;;;;;;;;;;;;;;;;;;
2021/12/21 12:49:54;;;;;;;14.55;5.57;;;14.00;82.70;;;;;;4685572;29;3067630;-82
2021/12/21 12:52:38;;;;;;;17.15;6.18;;;14.60;84.60;;;;;;4771299;29;20061;-83
2021/12/21 12:55:24;;;;;;;13.05;5.88;;;14.80;83.60;;;;;;4772870;29;50240;-84
2021/12/21 12:58:05;;;;;;;13.88;6.18;;;15.00;82.00;;;;;;4781383;29;21833;-83
2021/12/21 13:01:26;;;;;;;14.68;5.72;;;15.30;80.50;;;;;;4433301;29;10003763;-83
2021/12/21 13:04:12;;;;;;;11.79;5.56;;;15.60;71.80;;;;;;4646280;29;3003071;-85
2021/12/21 13:07:02;;;;;;;13.82;5.90;;;15.90;78.90;;;;;;4786757;29;20209;-82
2021/12/21 13:12:57;;;;;;;15.32;5.72;;;16.40;79.00;;;;;;4780038;29;20070;-82
2021/12/21 13:15:47;;;;;;;17.92;5.68;;;16.90;77.50;;;;;;4765115;29;177338;-83
2021/12/21 13:18:19;;;;;;;13.35;5.28;;;17.20;75.50;;;;;;4769411;29;20070;-82
2021/12/21 13:21:03;;;;;;;17.05;5.97;;;17.00;74.10;;;;;;4814514;29;80566;-84
2021/12/21 13:23:31;;;;;;;14.02;6.03;;;17.10;72.80;;;;;;4831132;29;22383;-83
2021/12/21 13:26:15;;;;;;;14.98;5.60;;;17.10;73.70;;;;;;4809801;29;187154;-84
2021/12/21 13:28:53;;;;;;;14.70;5.88;;;17.40;73.80;;;;;;4858089;29;20054;-83
2021/12/21 13:31:22;;;;;;;14.68;5.75;;;17.50;71.50;;;;;;4903518;29;125610;-82
2021/12/21 13:33:57;;;;;;;13.50;5.78;;;17.60;71.90;;;;;;4908439;29;20051;-83
2021/12/21 13:36:38;;;;;;;13.60;5.68;;;17.90;71.60;;;;;;4872652;29;20063;-83
2021/12/21 13:39:37;;;;;;;13.15;5.28;;;18.00;70.30;;;;;;4931595;28;211345;-82
2021/12/21 13:42:06;;;;;;;14.18;5.82;;;18.20;68.30;;;;;;4940849;29;20051;-82
2021/12/21 13:44:53;;;;;;;14.10;5.68;;;18.20;68.90;;;;;;4927949;28;207540;-83
2021/12/21 13:47:52;;;;;;;13.50;5.82;;;18.10;67.40;;;;;;4931646;29;20046;-82
2021/12/21 13:50:25;;;;;;;15.85;5.68;;;18.00;61.30;;;;;;4828579;28;3006306;-83
2021/12/21 13:53:04;;;;;;;14.48;5.18;;;17.80;67.20;;;;;;4962425;28;20217;-82
2021/12/21 13:55:58;;;;;;;;;;;;;;;;;;;;;
2021/12/21 13:58:36;;;;;;;16.23;5.30;;;17.70;66.40;;;;;;4967175;28;20046;-82
2021/12/21 14:01:09;;;;;;;12.68;5.28;;;17.50;65.30;;;;;;4712693;28;6019987;-83
2021/12/21 14:03:45;;;;;;;14.27;4.97;;;16.60;65.50;;;;;;4921284;29;20329;-82
2021/12/21 14:06:21;;;;;;;16.30;5.35;;;15.10;67.40;;;;;;4888095;28;238622;-82
2021/12/21 14:09:14;;;;;;;14.70;4.65;;;13.80;68.40;;;;;;4893613;29;136425;-82
2021/12/21 14:11:41;;;;;;;11.80;5.00;;;12.50;69.20;;;;;;4907964;29;20207;-83
2021/12/21 14:14:46;;;;;;;14.83;5.27;;;11.50;69.10;;;;;;4821342;29;3058119;-82
2021/12/21 14:17:29;;;;;;;15.57;6.05;;;10.40;68.20;;;;;;4927690;29;20052;-82
2021/12/21 14:20:02;;;;;;;20.38;6.15;;;9.60;69.90;;;;;;4875878;29;132659;-82
2021/12/21 14:22:36;;;;;;;16.70;6.32;;;9.00;71.30;;;;;;4902929;29;20060;-82
2021/12/21 14:25:15;;;;;;;16.15;6.43;;;9.30;71.40;;;;;;4872046;28;222512;-81